N10HP KEKY-KBHM
Flight info
| Callsign | N10HP |
|---|---|
| Flight time | N/A |
| Altitude | 5000 |
| Route | MCDEN |
| Aircraft | PC12/L-SDFGRWY/S |
Departure
| Time | 2026-04-19 04:41 |
|---|---|
| Airport | Bessemer Airport (KEKY) |
Arrival
| Time | N/A |
|---|---|
| Airport | Birmingham-Shuttlesworth International Airport (KBHM) |
| Time | Latitude | Longitude | Altitude | Speed | Heading |
|---|---|---|---|---|---|
| 2026-04-19 04:32 | 33.31345 | -86.92284 | 676 ft | 0 kts | 259° |
| 2026-04-19 04:38 | 33.31339 | -86.92304 | 676 ft | 9 kts | 245° |
| 2026-04-19 04:38 | 33.31333 | -86.92381 | 676 ft | 6 kts | 320° |
| 2026-04-19 04:38 | 33.31293 | -86.92445 | 676 ft | 25 kts | 229° |
| 2026-04-19 04:39 | 33.31206 | -86.92580 | 678 ft | 14 kts | 234° |
| 2026-04-19 04:39 | 33.31120 | -86.92687 | 678 ft | 18 kts | 234° |
| 2026-04-19 04:39 | 33.31050 | -86.92790 | 678 ft | 15 kts | 230° |
| 2026-04-19 04:39 | 33.30954 | -86.92925 | 676 ft | 26 kts | 231° |
| 2026-04-19 04:40 | 33.30844 | -86.93089 | 674 ft | 21 kts | 236° |
| 2026-04-19 04:40 | 33.30821 | -86.93177 | 672 ft | 4 kts | 230° |
| 2026-04-19 04:40 | 33.30741 | -86.93240 | 671 ft | 12 kts | 208° |
| 2026-04-19 04:40 | 33.30695 | -86.93346 | 670 ft | 20 kts | 306° |
| 2026-04-19 04:41 | 33.30809 | -86.93288 | 668 ft | 47 kts | 46° |
| 2026-04-19 04:41 | 33.31177 | -86.92759 | 686 ft | 110 kts | 45° |
| 2026-04-19 04:41 | 33.31702 | -86.92180 | 1177 ft | 103 kts | 29° |
| 2026-04-19 04:41 | 33.32212 | -86.91663 | 1755 ft | 97 kts | 35° |
| 2026-04-19 04:42 | 33.32746 | -86.91200 | 2223 ft | 96 kts | 19° |
| 2026-04-19 04:42 | 33.33183 | -86.90681 | 2756 ft | 94 kts | 36° |
| 2026-04-19 04:42 | 33.33573 | -86.90036 | 3251 ft | 95 kts | 53° |
| 2026-04-19 04:42 | 33.33789 | -86.89271 | 3675 ft | 96 kts | 56° |
| 2026-04-19 04:43 | 33.33961 | -86.88519 | 4112 ft | 91 kts | 43° |
| 2026-04-19 04:43 | 33.34535 | -86.88299 | 4314 ft | 96 kts | 349° |
| 2026-04-19 04:43 | 33.35177 | -86.88291 | 4743 ft | 98 kts | 348° |
| 2026-04-19 04:43 | 33.35902 | -86.88210 | 5062 ft | 113 kts | 358° |
| 2026-04-19 04:44 | 33.36639 | -86.88152 | 5481 ft | 114 kts | 351° |
| 2026-04-19 04:44 | 33.37548 | -86.88039 | 5699 ft | 134 kts | 7° |
| 2026-04-19 04:44 | 33.38350 | -86.87770 | 6361 ft | 112 kts | 358° |
| 2026-04-19 04:44 | 33.39183 | -86.87563 | 6334 ft | 151 kts | 8° |
| 2026-04-19 04:45 | 33.40340 | -86.87035 | 6059 ft | 182 kts | 18° |
| 2026-04-19 04:45 | 33.41554 | -86.86343 | 5762 ft | 196 kts | 21° |
| 2026-04-19 04:45 | 33.42697 | -86.85588 | 5541 ft | 185 kts | 27° |
| 2026-04-19 04:45 | 33.43714 | -86.84705 | 5336 ft | 181 kts | 40° |
| 2026-04-19 04:46 | 33.44362 | -86.83354 | 4941 ft | 200 kts | 62° |
| 2026-04-19 04:46 | 33.44077 | -86.81945 | 4710 ft | 205 kts | 192° |
| 2026-04-19 04:46 | 33.43003 | -86.82569 | 5563 ft | 156 kts | 221° |
| 2026-04-19 04:46 | 33.42262 | -86.83443 | 5893 ft | 150 kts | 238° |
| 2026-04-19 04:47 | 33.41531 | -86.84416 | 5747 ft | 174 kts | 236° |
| 2026-04-19 04:47 | 33.40733 | -86.85686 | 3978 ft | 228 kts | 243° |
| 2026-04-19 04:47 | 33.39992 | -86.87349 | 3047 ft | 224 kts | 244° |
| 2026-04-19 04:47 | 33.39306 | -86.88719 | 3404 ft | 166 kts | 239° |
| 2026-04-19 04:48 | 33.38708 | -86.89937 | 2739 ft | 176 kts | 248° |
| 2026-04-19 04:48 | 33.38038 | -86.91204 | 2240 ft | 178 kts | 242° |
| 2026-04-19 04:48 | 33.37389 | -86.92467 | 1696 ft | 180 kts | 245° |
| 2026-04-19 04:48 | 33.36916 | -86.94019 | 1205 ft | 216 kts | 258° |
| 2026-04-19 04:49 | 33.36924 | -86.95861 | 784 ft | 231 kts | 303° |
| 2026-04-19 04:49 | 33.37157 | -86.97306 | 824 ft | 224 kts | 225° |
| 2026-04-19 04:49 | 33.35875 | -86.98415 | 577 ft | 232 kts | 193° |
| 2026-04-19 04:49 | 33.34304 | -86.98716 | 776 ft | 217 kts | 197° |
| 2026-04-19 04:50 | 33.34218 | -86.98558 | 927 ft | 208 kts | 206° |
| 2026-04-19 04:50 | 33.32983 | -86.99576 | 676 ft | 223 kts | 214° |
| 2026-04-19 04:50 | 33.32697 | -86.99824 | 539 ft | 0 kts | 242° |
| 2026-04-19 04:51 | 33.31300 | -86.92355 | 676 ft | 0 kts | 230° |
| 2026-04-19 05:02 | 33.31299 | -86.92355 | 676 ft | 0 kts | 228° |
| 2026-04-19 05:07 | 33.31285 | -86.92390 | 676 ft | 11 kts | 250° |